Whale Point, California Weather observations

Data are for observation ending at time listed.
 Day   Time    Ave.   Ave.  Ave.  Vector   Max.   Stn.    Total    Solar   Ave.  
  of    of     Air    Rel.  Wind   Wind    Wind   Baro.  Precip.   Rad.    Soil  
Year   Day     Temp.  Hum.  Speed  Dir.    Gust   Pres.                    Temp. 
2014   (PST)    F      %     mph   deg.    mph     mb.     in.     W/m2     F   
------------------------------------------------------------------------------
 105   13:40   58.5    75    5.8   221     11.9   993.6    0.00     928    62.6
 105   13:50   57.5    77    5.8   242     12.1   993.6    0.00     911    62.7
 105   14:00   57.3    77    5.4   236     10.4   993.6    0.00     891    62.9
 105   14:10   58.4    76    5.2   221      7.9   993.2    0.00     872    63.0
 105   14:20   58.7    74    5.4   214      9.4   993.2    0.00     849    63.1
 105   14:30   59.0    74    4.0   222      7.2   992.9    0.00     828    63.3
 105   14:40   60.4    71    4.8   215      8.4   992.9    0.00     804    63.4
 105   14:50   59.5    73    5.6   223      9.1   992.6    0.00     777    63.6
 105   15:00   59.4    73    5.1   227      8.3   992.6    0.00     749    63.7
 105   15:10   59.3    72    5.5   232      9.2   992.2    0.00     720    63.9
 105   15:20   58.0    75    6.0   232      9.1   992.2    0.00     690    64.0
 105   15:30   59.0    73    5.9   220      8.9   991.9    0.00     656    64.1
 105   15:40   58.5    73    4.2   220     10.8   991.9    0.00     623    64.3
 105   15:50   57.9    75    5.2   230      8.0   991.9    0.00     591    64.4
 105   16:00   58.2    74    4.7   222      7.7   991.9    0.00     555    64.5
 105   16:10   58.8    73    4.8   231      8.2   991.5    0.00     520    64.7
 105   16:20   57.1    76    5.3   234      8.2   991.5    0.00     483    64.8
 105   16:30   57.7    76    5.4   229      8.4   991.5    0.00     446    64.9
 105   16:40   57.5    76    4.9   228      8.3   991.5    0.00     405    65.1
 105   16:50   58.5    74    4.3   231      8.3   991.5    0.00     364    65.1
 105   17:00   58.0    75    3.4   233      6.5   991.5    0.00     253    65.2
 105   17:10   57.6    75    3.8   233      6.6   991.2    0.00     284    65.3
 105   17:20   56.6    77    5.1   230      8.6   991.2    0.00     247    65.4
 105   17:30   56.0    79    4.9   232      7.8   991.2    0.00     206    65.5
 105   17:40   56.6    78    3.5   227      7.5   991.2    0.00     170    65.6
 105   17:50   56.4    77    3.9   233      7.3   991.2    0.00     141    65.6
 105   18:00   55.8    79    2.8   206      6.3   991.2    0.00     107    65.7
 105   18:10   55.2    80    2.3   215      5.8   990.9    0.00      72    65.8
 105   18:20   54.8    81    2.1   220      4.9   990.9    0.00      44    65.8
 105   18:30   54.0    82    1.5   207      5.0   990.9    0.00      20    65.9
 105   18:40   53.2    84    1.1   177      4.5   990.9    0.00       8    66.0
 105   18:50   52.9    85    3.7   141      6.0   990.9    0.00       3    66.0
 105   19:00   52.7    86    4.1   134      6.1   990.9    0.00       1    66.0
 105   19:10   52.7    86    2.2   117      4.5   990.9    0.00       0    66.0
 105   19:20   52.6    86    3.8   142      6.7   990.9    0.00       0    66.0
 105   19:30   52.7    86    3.5   138      6.8   990.9    0.00       0    66.0
 105   19:40   52.4    86    3.1   132      5.4   990.9    0.00       0    66.0
 105   19:50   52.2    86    2.0   150      5.0   990.9    0.00       0    66.0
 105   20:00   52.1    87    4.8   142      8.0   991.2    0.00       0    65.9
 105   20:10   52.0    87    5.5   138      9.0   991.2    0.00       0    65.9
 105   20:20   51.9    88    5.2   126      8.8   991.5    0.00       0    65.9
 105   20:30   51.7    88    5.8   137      9.2   991.5    0.00       0    65.8
 105   20:40   51.4    88    5.1   135      8.6   991.5    0.00       0    65.8
 105   20:50   51.1    89    4.6   140      7.7   991.5    0.00       0    65.7
 105   21:00   51.1    89    5.8   142      8.2   991.2    0.00       0    65.7
 105   21:10   51.1    88    2.5    49      5.6   991.2    0.00       0    65.6
 105   21:20   50.6    88    0.6    86      2.5   991.2    0.00       0    65.6
 105   21:30   50.1    88    1.4    94      4.4   991.2    0.00       0    65.5
 105   21:40   50.0    89    1.5   102      2.9   991.2    0.00       0    65.5
 105   21:50   50.8    89    2.7   138      6.4   991.2    0.00       0    65.4
 105   22:00   50.7    88    0.8   342      2.9   991.2    0.00       0    65.3
 105   22:10   50.7    88    0.7    42      2.3   991.2    0.00       0    65.3
 105   22:20   50.8    88    0.7    99      2.9   991.2    0.00       0    65.2
 105   22:30   50.5    87    1.8    30      2.9   990.9    0.00       0    65.1
 105   22:40   50.6    88    0.7    53      1.9   990.9    0.00       0    65.1
 105   22:50   50.7    87    0.9   134      2.1   990.9    0.00       0    65.0
 105   23:00   50.5    86    1.6   155      3.0   990.5    0.00       0    64.9
 105   23:10   49.6    88    1.7   171      3.4   990.9    0.00       0    64.9
 105   23:20   49.4    90    1.8   124      3.8   990.9    0.00       0    64.8
 105   23:30   49.5    90    1.2   358      2.6   990.9    0.00       0    64.7
 105   23:40   49.7    90    1.4    34      3.1   990.9    0.00       0    64.6
 105   23:50   50.2    88    1.9   110      4.9   990.9    0.00       0    64.5
 106    0:00   50.9    84    1.3    26      2.9   990.5    0.00       0    64.4
 106    0:10   50.7    85    1.6   340      5.0   990.5    0.00       0    64.4
 106    0:20   49.9    86    1.2    53      3.4   990.5    0.00       0    64.3
 106    0:30   49.6    88    1.3   130      4.2   990.5    0.00       0    64.2
 106    0:40   49.3    89    1.4   166      3.8   990.5    0.00       0    64.1
 106    0:50   49.1    90    1.9   109      6.3   990.5    0.00       0    64.1
 106    1:00   49.4    90    1.0   148      3.9   990.5    0.00       0    64.0
 106    1:10   49.3    91    2.0    52      4.2   990.5    0.00       0    63.9
 106    1:20   49.1    91    1.7   116      4.1   990.9    0.00       0    63.8
 106    1:30   49.1    91    1.1   140      2.9   990.5    0.00       0    63.8
 106    1:40   48.9    91    1.7   162      8.0   990.5    0.00       0    63.7
 106    1:50   49.3    92    4.8   147     11.5   990.9    0.01       0    63.6
 106    2:00   49.7    90    5.8    72      9.3   990.5    0.00       0    63.5
 106    2:10   49.8    88    3.6   134      8.0   990.5    0.00       0    63.5
 106    2:20   49.7    87    1.8   197      4.7   990.5    0.00       0    63.4
 106    2:30   49.1    89    3.8    36      5.9   990.5    0.00       0    63.3
 106    2:40   48.9    89    2.1    63      3.9   990.2    0.00       0    63.3
 106    2:50   49.1    88    2.6    48      6.1   990.2    0.00       0    63.2
 106    3:00   49.3    89    2.3   208      4.8   990.2    0.00       0    63.1
 106    3:10   49.1    89    3.0   111      6.3   990.2    0.00       0    63.1
 106    3:20   48.7    89    6.2    41      9.6   989.8    0.00       0    63.0
 106    3:30   49.2    87    3.8    65     10.3   989.8    0.00       0    62.9
 106    3:40   49.7    82    1.8   105      3.4   989.8    0.00       0    62.9
 106    3:50   51.2    78    2.1    85      4.7   990.2    0.00       0    62.8
 106    4:00   51.5    75    3.7    74      7.5   989.8    0.00       0    62.7
 106    4:10   52.2    72    3.2   175      7.7   989.8    0.00       0    62.6
 106    4:20   49.9    83    2.4   186      7.4   990.2    0.00       0    62.6
 106    4:30   49.4    86    1.5    64      3.4   989.8    0.00       0    62.5
 106    4:40   49.2    84    1.4   159      4.8   989.8    0.00       0    62.5
 106    4:50   49.1    84    2.1   163      4.1   989.8    0.00       0    62.4
 106    5:00   49.4    84    1.4   128      3.4   989.8    0.00       0    62.4
 106    5:10   49.0    84    1.8    78      8.1   989.8    0.00       0    62.3
 106    5:20   48.5    86    1.9    32      5.4   989.8    0.00       0    62.2
 106    5:30   48.9    86    3.0   151      5.8   990.2    0.00       2    62.2
 106    5:40   49.4    88    3.8   117      7.2   990.2    0.00       6    62.1
 106    5:50   49.1    83    3.2    46      7.2   989.8    0.00      10    62.1
 106    6:00   49.5    85    2.4   154      4.5   989.8    0.00      14    62.0
 106    6:10   50.0    83    2.3   183      5.0   990.2    0.00      18    61.9
 106    6:20   50.2    81    1.2   114      2.8   990.5    0.00      22    61.9
 106    6:30   50.7    80    3.1    66      6.5   990.5    0.00      27    61.8
 106    6:40   51.2    77    1.9   118      5.4   990.5    0.00      29    61.8
 106    6:50   50.9    80    2.3   155      5.3   990.5    0.00      32    61.7
 106    7:00   50.5    81    0.4   156      2.3   990.9    0.00      35    61.7
 106    7:10   50.6    81    0.2   136      1.2   990.5    0.00      37    61.6
 106    7:20   50.8    82    1.4   182      4.2   990.9    0.00      51    61.6
 106    7:30   51.0    84    2.1   176      3.1   990.9    0.00     359    61.5
 106    7:40   52.0    83    2.7   173      3.8   990.9    0.00     414    61.4
 106    7:50   52.1    83    2.8   195      3.9   990.9    0.00     461    61.3
 106    8:00   52.5    83    1.5   208      3.2   990.9    0.00     511    61.3
 106    8:10   54.3    80    1.2   194      2.9   990.5    0.00     541    61.2
 106    8:20   54.0    79    2.2   200      3.9   990.9    0.00     574    61.2
 106    8:30   53.2    81    3.0   203      4.7   990.5    0.00     606    61.1
 106    8:40   53.0    83    2.5   190      4.4   990.5    0.00     636    61.1
 106    8:50   54.2    80    2.6   204      4.5   990.5    0.00     669    61.1
 106    9:00   53.2    82    4.0   197      5.5   990.5    0.00     700    61.1
 106    9:10   53.0    83    4.5   202      6.6   990.5    0.00     727    61.1
 106    9:20   52.8    84    4.5   199      8.1   990.9    0.00     752    61.1
 106    9:30   52.8    84    4.0   202      6.8   990.9    0.00     781    61.1
 106    9:40   53.2    83    4.0   203      6.6   990.9    0.00     807    61.1
 106    9:50   53.6    82    4.6   197      8.6   991.2    0.00     831    61.1
 106   10:00   54.5    81    3.7   199      6.3   991.2    0.00     853    61.1
 106   10:10   54.9    80    3.8   198      6.2   991.2    0.00     874    61.1
 106   10:20   55.2    81    4.4   198      6.6   991.2    0.00     894    61.1
 106   10:30   55.1    82    4.4   206      8.0   991.2    0.00     914    61.1
 106   10:40   54.9    83    4.6   207      8.0   991.2    0.00     931    61.1
 106   10:50   54.8    83    5.0   199     10.7   990.9    0.00     944    61.1
 106   11:00   54.5    83    6.0   198     10.0   990.9    0.00     957    61.1
 106   11:10   55.0    83    4.2   210      9.3   990.9    0.00     967    61.1
 106   11:20   55.7    81    4.3   208      6.6   990.5    0.00     978    61.1
 106   11:30   55.9    80    4.4   216      7.1   990.5    0.00     986    61.1
 106   11:40   56.8    78    4.2   223      6.1   990.5    0.00     991    61.1
 106   11:50   56.4    78    4.5   219      6.7   990.5    0.00     996    61.1
 106   12:00   57.7    74    4.9   218      8.1   990.5    0.00     998    61.2
 106   12:10   57.4    72    5.2   214      8.0   990.5    0.00    1000    61.2
 106   12:20   57.6    74    5.0   213      7.0   990.5    0.00     998    61.3
 106   12:30   58.2    72    4.5   210      7.2   990.2    0.00     994    61.3
 106   12:40   58.2    72    5.1   218      7.2   990.2    0.00     989    61.4
 106   12:50   58.9    72    5.2   211      7.7   990.2    0.00     982    61.5
 106   13:00   59.3    73    4.9   204      7.7   990.2    0.00     975    61.6
 106   13:10   59.8    72    4.9   205      7.2   990.2    0.00     964    61.7
 106   13:20   59.0    72    4.8   220      7.2   989.8    0.00     952    61.8
 106   13:30   59.0    72    4.7   218      7.0   989.8    0.00     938    61.9

Return to Whale Point graphs page.


Western Regional Climate Center,wrcc@dri.edu